sensor_id;sensor_type;location;lat;lon;timestamp;pressure;altitude;pressure_sealevel;temperature;humidity
929;BME280;451;47.988;7.842;2023-07-20T00:05:42;98394.88;;;23.34;53.28
929;BME280;451;47.988;7.842;2023-07-20T00:14:47;98383.81;;;23.52;52.74
929;BME280;451;47.988;7.842;2023-07-20T00:23:50;98391.72;;;23.69;53.43
929;BME280;451;47.988;7.842;2023-07-20T00:32:54;98407.97;;;23.52;54.25
929;BME280;451;47.988;7.842;2023-07-20T00:41:58;98404.81;;;23.60;53.27
929;BME280;451;47.988;7.842;2023-07-20T00:51:04;98395.78;;;23.18;53.87
929;BME280;451;47.988;7.842;2023-07-20T01:00:08;98405.72;;;23.44;53.69
929;BME280;451;47.988;7.842;2023-07-20T01:09:14;98386.38;;;22.88;54.10
929;BME280;451;47.988;7.842;2023-07-20T01:18:20;98360.81;;;23.08;54.28
929;BME280;451;47.988;7.842;2023-07-20T01:27:44;98377.25;;;23.43;53.40
929;BME280;451;47.988;7.842;2023-07-20T01:36:55;98382.66;;;23.16;54.24
929;BME280;451;47.988;7.842;2023-07-20T01:45:59;98369.69;;;23.35;57.16
929;BME280;451;47.988;7.842;2023-07-20T01:55:05;98351.44;;;22.62;61.10
929;BME280;451;47.988;7.842;2023-07-20T02:04:09;98251.84;;;21.61;63.51
929;BME280;451;47.988;7.842;2023-07-20T02:13:14;98224.19;;;21.17;65.89
929;BME280;451;47.988;7.842;2023-07-20T02:22:18;98353.38;;;21.67;66.85
929;BME280;451;47.988;7.842;2023-07-20T02:31:22;98355.63;;;21.92;66.86
929;BME280;451;47.988;7.842;2023-07-20T02:40:25;98417.75;;;21.61;67.28
929;BME280;451;47.988;7.842;2023-07-20T02:49:30;98356.25;;;21.32;69.02
929;BME280;451;47.988;7.842;2023-07-20T02:58:34;98332.16;;;20.87;70.14
929;BME280;451;47.988;7.842;2023-07-20T03:07:40;98233.84;;;20.16;70.71
929;BME280;451;47.988;7.842;2023-07-20T03:16:45;98364.59;;;20.91;69.97
929;BME280;451;47.988;7.842;2023-07-20T03:25:50;98374.31;;;20.97;69.64
929;BME280;451;47.988;7.842;2023-07-20T03:34:56;98377.88;;;20.86;70.68
929;BME280;451;47.988;7.842;2023-07-20T03:44:01;98375.34;;;20.68;70.88
929;BME280;451;47.988;7.842;2023-07-20T03:53:04;98351.31;;;20.96;69.89
929;BME280;451;47.988;7.842;2023-07-20T04:02:09;98370.69;;;20.75;70.99
929;BME280;451;47.988;7.842;2023-07-20T04:11:12;98376.84;;;20.35;72.26
929;BME280;451;47.988;7.842;2023-07-20T04:20:17;98398.50;;;19.81;76.88
929;BME280;451;47.988;7.842;2023-07-20T04:29:21;98395.38;;;20.53;72.58
929;BME280;451;47.988;7.842;2023-07-20T04:38:26;98388.50;;;20.58;71.88
929;BME280;451;47.988;7.842;2023-07-20T04:47:40;98336.97;;;20.45;71.12
929;BME280;451;47.988;7.842;2023-07-20T04:56:45;98400.84;;;21.27;70.53
929;BME280;451;47.988;7.842;2023-07-20T05:05:49;98396.28;;;21.27;69.64
929;BME280;451;47.988;7.842;2023-07-20T05:14:54;98400.00;;;20.98;70.44
929;BME280;451;47.988;7.842;2023-07-20T05:23:57;98403.13;;;21.52;69.98
929;BME280;451;47.988;7.842;2023-07-20T05:33:03;98399.09;;;21.66;68.39
929;BME280;451;47.988;7.842;2023-07-20T05:42:06;98402.59;;;22.17;66.57
929;BME280;451;47.988;7.842;2023-07-20T05:51:11;98402.31;;;22.57;65.27
929;BME280;451;47.988;7.842;2023-07-20T06:00:14;98392.09;;;22.75;63.21
929;BME280;451;47.988;7.842;2023-07-20T06:09:19;98415.78;;;23.32;60.90
929;BME280;451;47.988;7.842;2023-07-20T06:18:22;98401.56;;;23.58;61.79
929;BME280;451;47.988;7.842;2023-07-20T06:27:27;98332.56;;;23.91;59.34
929;BME280;451;47.988;7.842;2023-07-20T06:36:30;98394.59;;;24.31;56.23
929;BME280;451;47.988;7.842;2023-07-20T06:45:35;98400.81;;;24.89;52.85
929;BME280;451;47.988;7.842;2023-07-20T06:54:38;98399.13;;;24.78;50.00
929;BME280;451;47.988;7.842;2023-07-20T07:03:43;98399.63;;;24.75;49.73
929;BME280;451;47.988;7.842;2023-07-20T07:12:46;98304.09;;;23.53;51.92
929;BME280;451;47.988;7.842;2023-07-20T07:21:51;98406.75;;;24.02;54.22
929;BME280;451;47.988;7.842;2023-07-20T07:30:55;98423.44;;;23.18;54.41
929;BME280;451;47.988;7.842;2023-07-20T07:40:00;98417.53;;;24.07;52.26
929;BME280;451;47.988;7.842;2023-07-20T07:49:03;98398.16;;;24.05;51.70
929;BME280;451;47.988;7.842;2023-07-20T07:58:08;98413.94;;;23.59;52.53
929;BME280;451;47.988;7.842;2023-07-20T08:07:11;98410.13;;;24.76;50.37
929;BME280;451;47.988;7.842;2023-07-20T08:16:16;98398.19;;;25.14;49.70
929;BME280;451;47.988;7.842;2023-07-20T08:25:19;98402.56;;;25.76;48.58
929;BME280;451;47.988;7.842;2023-07-20T08:34:23;98399.91;;;25.61;48.33
929;BME280;451;47.988;7.842;2023-07-20T08:43:27;98401.00;;;24.25;50.75
929;BME280;451;47.988;7.842;2023-07-20T08:52:33;98385.28;;;25.26;49.46
929;BME280;451;47.988;7.842;2023-07-20T09:01:39;98392.34;;;25.68;47.98
929;BME280;451;47.988;7.842;2023-07-20T09:10:44;98383.91;;;25.19;47.86
929;BME280;451;47.988;7.842;2023-07-20T09:19:47;98372.69;;;28.95;41.31
929;BME280;451;47.988;7.842;2023-07-20T09:28:53;98308.19;;;31.25;36.92
929;BME280;451;47.988;7.842;2023-07-20T09:37:58;98354.63;;;29.09;39.78
929;BME280;451;47.988;7.842;2023-07-20T09:47:03;98347.78;;;29.30;38.59
929;BME280;451;47.988;7.842;2023-07-20T09:56:07;98333.00;;;28.66;40.88
929;BME280;451;47.988;7.842;2023-07-20T10:05:14;98326.84;;;28.13;42.36
929;BME280;451;47.988;7.842;2023-07-20T10:14:20;98311.59;;;29.07;40.47
929;BME280;451;47.988;7.842;2023-07-20T10:23:26;98303.19;;;29.74;39.49
929;BME280;451;47.988;7.842;2023-07-20T10:32:31;98310.22;;;28.01;41.83
929;BME280;451;47.988;7.842;2023-07-20T10:41:39;98286.59;;;30.35;38.04
929;BME280;451;47.988;7.842;2023-07-20T10:50:43;98290.63;;;30.73;36.99
929;BME280;451;47.988;7.842;2023-07-20T10:59:47;98270.25;;;29.53;37.08
929;BME280;451;47.988;7.842;2023-07-20T11:08:55;98282.97;;;27.97;40.60
929;BME280;451;47.988;7.842;2023-07-20T11:18:12;98266.31;;;29.91;38.74
929;BME280;451;47.988;7.842;2023-07-20T11:27:16;98247.97;;;30.24;37.51
929;BME280;451;47.988;7.842;2023-07-20T11:36:21;98226.41;;;29.78;38.79
929;BME280;451;47.988;7.842;2023-07-20T11:45:25;98241.84;;;28.43;39.81
929;BME280;451;47.988;7.842;2023-07-20T11:54:30;98228.66;;;29.11;39.85
929;BME280;451;47.988;7.842;2023-07-20T12:03:34;98217.47;;;28.99;38.76
929;BME280;451;47.988;7.842;2023-07-20T12:12:39;98210.19;;;29.13;38.40
929;BME280;451;47.988;7.842;2023-07-20T12:21:43;98210.72;;;28.03;40.42
929;BME280;451;47.988;7.842;2023-07-20T12:30:48;98166.25;;;30.03;37.47
929;BME280;451;47.988;7.842;2023-07-20T12:39:58;98183.25;;;28.71;39.29
929;BME280;451;47.988;7.842;2023-07-20T12:49:02;98169.59;;;28.62;40.04
929;BME280;451;47.988;7.842;2023-07-20T12:58:06;98153.56;;;30.13;39.62
929;BME280;451;47.988;7.842;2023-07-20T13:07:11;98144.72;;;29.25;39.14
929;BME280;451;47.988;7.842;2023-07-20T13:16:14;98147.69;;;28.45;40.45
929;BME280;451;47.988;7.842;2023-07-20T13:25:19;98124.66;;;28.47;39.56
929;BME280;451;47.988;7.842;2023-07-20T13:34:23;98129.13;;;28.90;38.90
929;BME280;451;47.988;7.842;2023-07-20T13:43:27;98024.56;;;29.07;37.71
929;BME280;451;47.988;7.842;2023-07-20T13:52:30;98080.44;;;28.71;39.15
929;BME280;451;47.988;7.842;2023-07-20T14:01:35;98115.69;;;28.66;39.62
929;BME280;451;47.988;7.842;2023-07-20T14:10:38;98095.56;;;29.04;38.66
929;BME280;451;47.988;7.842;2023-07-20T14:19:43;98096.34;;;28.59;39.90
929;BME280;451;47.988;7.842;2023-07-20T14:28:46;98084.63;;;29.64;39.15
929;BME280;451;47.988;7.842;2023-07-20T14:37:50;98081.63;;;29.24;37.81
929;BME280;451;47.988;7.842;2023-07-20T14:46:53;98064.88;;;29.63;38.38
929;BME280;451;47.988;7.842;2023-07-20T14:56:01;98047.13;;;29.44;38.35
929;BME280;451;47.988;7.842;2023-07-20T15:05:06;98056.38;;;30.51;37.27
929;BME280;451;47.988;7.842;2023-07-20T15:14:11;98049.19;;;29.74;38.00
929;BME280;451;47.988;7.842;2023-07-20T15:23:14;98051.34;;;29.99;37.66
929;BME280;451;47.988;7.842;2023-07-20T15:32:19;98022.78;;;31.56;35.62
929;BME280;451;47.988;7.842;2023-07-20T15:41:22;98007.59;;;30.99;36.40
929;BME280;451;47.988;7.842;2023-07-20T15:50:27;97994.78;;;30.29;36.74
929;BME280;451;47.988;7.842;2023-07-20T15:59:30;98022.03;;;29.88;36.67
929;BME280;451;47.988;7.842;2023-07-20T16:08:34;98008.88;;;29.18;37.84
929;BME280;451;47.988;7.842;2023-07-20T16:17:38;97999.25;;;29.12;38.28
929;BME280;451;47.988;7.842;2023-07-20T16:26:42;97997.66;;;29.74;37.65
929;BME280;451;47.988;7.842;2023-07-20T16:35:46;98015.31;;;28.95;39.24
929;BME280;451;47.988;7.842;2023-07-20T16:44:51;97985.66;;;29.03;39.20
929;BME280;451;47.988;7.842;2023-07-20T16:53:54;97977.41;;;29.08;39.32
929;BME280;451;47.988;7.842;2023-07-20T17:02:59;97975.41;;;29.00;38.65
929;BME280;451;47.988;7.842;2023-07-20T17:12:06;97980.97;;;28.63;39.17
929;BME280;451;47.988;7.842;2023-07-20T17:21:13;97976.03;;;27.86;40.59
929;BME280;451;47.988;7.842;2023-07-20T17:30:17;97977.53;;;28.43;39.45
929;BME280;451;47.988;7.842;2023-07-20T17:39:22;97979.31;;;28.21;39.80
929;BME280;451;47.988;7.842;2023-07-20T17:48:27;97964.00;;;27.79;41.65
929;BME280;451;47.988;7.842;2023-07-20T17:57:31;97966.38;;;27.99;41.51
929;BME280;451;47.988;7.842;2023-07-20T18:06:34;97955.47;;;26.86;41.90
929;BME280;451;47.988;7.842;2023-07-20T18:15:40;97974.19;;;26.54;43.61
929;BME280;451;47.988;7.842;2023-07-20T18:24:43;97972.94;;;26.70;42.76
929;BME280;451;47.988;7.842;2023-07-20T18:33:47;97969.50;;;26.65;42.60
929;BME280;451;47.988;7.842;2023-07-20T18:42:51;97921.63;;;25.55;43.75
929;BME280;451;47.988;7.842;2023-07-20T18:51:55;97984.38;;;25.94;44.75
929;BME280;451;47.988;7.842;2023-07-20T19:00:59;97969.53;;;25.63;44.66
929;BME280;451;47.988;7.842;2023-07-20T19:10:05;97923.31;;;24.86;45.78
929;BME280;451;47.988;7.842;2023-07-20T19:19:10;97985.91;;;25.22;46.40
929;BME280;451;47.988;7.842;2023-07-20T19:28:15;97994.84;;;25.08;46.93
929;BME280;451;47.988;7.842;2023-07-20T19:37:18;98004.81;;;24.87;49.45
929;BME280;451;47.988;7.842;2023-07-20T19:46:22;98004.91;;;23.96;54.61
929;BME280;451;47.988;7.842;2023-07-20T19:55:25;98016.16;;;23.83;56.12
929;BME280;451;47.988;7.842;2023-07-20T20:04:31;98024.28;;;23.20;57.98
929;BME280;451;47.988;7.842;2023-07-20T20:13:34;98040.69;;;23.29;57.83
929;BME280;451;47.988;7.842;2023-07-20T20:22:38;98055.69;;;23.30;58.18
929;BME280;451;47.988;7.842;2023-07-20T20:31:42;98039.94;;;22.86;59.34
929;BME280;451;47.988;7.842;2023-07-20T20:40:47;98046.19;;;22.60;60.74
929;BME280;451;47.988;7.842;2023-07-20T20:49:51;98042.88;;;22.48;61.40
929;BME280;451;47.988;7.842;2023-07-20T20:58:59;98043.81;;;22.32;62.64
929;BME280;451;47.988;7.842;2023-07-20T21:08:03;98048.91;;;22.01;62.54
929;BME280;451;47.988;7.842;2023-07-20T21:17:08;98053.81;;;22.09;62.16
929;BME280;451;47.988;7.842;2023-07-20T21:26:11;98044.94;;;21.82;63.11
929;BME280;451;47.988;7.842;2023-07-20T21:35:19;98048.16;;;21.79;63.87
929;BME280;451;47.988;7.842;2023-07-20T21:44:23;98052.28;;;21.43;65.93
929;BME280;451;47.988;7.842;2023-07-20T21:53:28;98044.91;;;21.28;66.29
929;BME280;451;47.988;7.842;2023-07-20T22:02:32;97958.78;;;20.28;67.40
929;BME280;451;47.988;7.842;2023-07-20T22:11:38;98038.34;;;20.81;67.78
929;BME280;451;47.988;7.842;2023-07-20T22:20:41;98013.94;;;20.56;67.88
929;BME280;451;47.988;7.842;2023-07-20T22:29:46;98023.03;;;20.55;69.58
929;BME280;451;47.988;7.842;2023-07-20T22:38:49;98009.63;;;20.33;70.19
929;BME280;451;47.988;7.842;2023-07-20T22:47:54;98024.16;;;20.59;68.57
929;BME280;451;47.988;7.842;2023-07-20T22:56:57;97988.41;;;20.09;68.88
929;BME280;451;47.988;7.842;2023-07-20T23:06:02;97925.97;;;19.60;68.84
929;BME280;451;47.988;7.842;2023-07-20T23:15:07;98009.59;;;20.16;69.69
929;BME280;451;47.988;7.842;2023-07-20T23:24:12;98004.88;;;20.57;66.73
929;BME280;451;47.988;7.842;2023-07-20T23:33:17;97997.22;;;20.43;66.81
929;BME280;451;47.988;7.842;2023-07-20T23:42:22;98010.50;;;20.38;67.70
929;BME280;451;47.988;7.842;2023-07-20T23:51:25;98002.41;;;20.33;68.72
